Time;durP1;ratioP1;P1;durP2;ratioP2;P2;SDS_P1;SDS_P2;PMS_P1;PMS_P2;Temp;Humidity;BMP_temperature;BMP_pressure;BME280_temperature;BME280_humidity;BME280_pressure;Samples;Min_cycle;Max_cycle;Signal;HPM_P1;HPM_P2
2022/11/30 00:02:22;;;;;;;;;50.50;42.75;;;;;7.94;76.97;101343.72;5076400;28;45307;-69
2022/11/30 00:04:47;;;;;;;;;46.00;40.00;;;;;7.92;77.24;101334.16;5076839;28;45499;-66
2022/11/30 00:07:12;;;;;;;;;47.00;40.75;;;;;7.90;77.30;101336.81;5076344;28;45416;-68
2022/11/30 00:09:38;;;;;;;;;39.25;35.00;;;;;7.90;77.26;101331.56;5076220;28;45325;-67
2022/11/30 00:12:03;;;;;;;;;38.25;35.25;;;;;7.94;77.39;101332.38;5092082;27;45353;-67
2022/11/30 00:14:29;;;;;;;;;43.25;36.75;;;;;7.93;77.88;101330.63;5076482;27;45944;-66
2022/11/30 00:16:54;;;;;;;;;44.75;38.50;;;;;7.78;77.50;101295.13;5075685;28;46290;-67
2022/11/30 00:19:19;;;;;;;;;37.75;34.50;;;;;7.89;77.39;101320.22;5091783;27;45361;-67
2022/11/30 00:21:45;;;;;;;;;48.25;41.25;;;;;7.82;77.11;101312.50;5076424;28;45317;-69
2022/11/30 00:24:10;;;;;;;;;43.50;38.50;;;;;7.87;77.38;101327.22;5076367;27;45346;-68
2022/11/30 00:26:36;;;;;;;;;42.50;37.50;;;;;7.82;77.97;101317.75;5076090;27;45402;-69
2022/11/30 00:29:01;;;;;;;;;37.75;34.00;;;;;7.83;77.48;101322.94;5076217;28;45315;-68
2022/11/30 00:31:26;;;;;;;;;42.00;36.00;;;;;7.79;77.34;101316.03;5076190;28;45325;-66
2022/11/30 00:33:52;;;;;;;;;42.00;36.75;;;;;7.72;77.83;101312.66;5074841;28;45830;-68
2022/11/30 00:36:20;;;;;;;;;43.50;36.50;;;;;7.82;77.81;101321.22;5075788;28;46020;-66
2022/11/30 00:38:46;;;;;;;;;31.25;31.25;;;;;7.84;78.17;101316.81;5075349;28;45320;-67
2022/11/30 00:41:12;;;;;;;;;41.50;37.00;;;;;7.83;77.74;101315.06;5073909;28;45385;-68
2022/11/30 00:43:37;;;;;;;;;42.25;37.50;;;;;7.87;77.87;101314.13;5074292;28;45609;-67
2022/11/30 00:46:03;;;;;;;;;47.00;35.50;;;;;7.85;77.86;101312.44;5074878;28;45603;-67
2022/11/30 00:48:28;;;;;;;;;40.00;37.00;;;;;7.85;77.41;101321.16;5073979;28;45468;-68
2022/11/30 00:50:53;;;;;;;;;41.75;37.75;;;;;7.83;77.66;101309.84;5075358;28;45361;-67
2022/11/30 00:53:19;;;;;;;;;39.00;35.75;;;;;7.86;77.29;101308.94;5075703;28;45436;-67
2022/11/30 00:55:46;;;;;;;;;37.00;34.50;;;;;7.85;77.64;101304.59;5090654;27;47040;-67
2022/11/30 00:58:12;;;;;;;;;37.50;35.00;;;;;7.86;77.68;101298.47;5075073;27;45404;-68
2022/11/30 01:00:37;;;;;;;;;35.50;34.25;;;;;7.83;77.78;101295.91;5074084;27;45397;-67
2022/11/30 01:03:03;;;;;;;;;38.00;33.00;;;;;7.83;77.49;101301.97;5075414;28;45536;-66
2022/11/30 01:05:29;;;;;;;;;38.25;34.75;;;;;7.82;77.15;101300.25;5075024;28;45346;-66
2022/11/30 01:07:54;;;;;;;;;36.25;34.00;;;;;7.75;77.22;101288.16;5075231;28;45357;-66
2022/11/30 01:10:21;;;;;;;;;37.25;35.00;;;;;7.79;76.94;101305.53;5090952;27;45333;-67
2022/11/30 01:12:47;;;;;;;;;34.50;33.50;;;;;7.77;77.79;101307.31;5073795;28;45468;-67
2022/11/30 01:15:12;;;;;;;;;33.75;32.50;;;;;7.80;77.26;101316.91;5074730;28;45462;-67
2022/11/30 01:17:38;;;;;;;;;37.25;34.25;;;;;7.76;77.13;101313.47;5074612;28;45283;-68
2022/11/30 01:20:05;;;;;;;;;32.50;31.25;;;;;7.74;77.19;101302.13;5075128;27;45434;-67
2022/11/30 01:22:30;;;;;;;;;37.00;33.75;;;;;7.74;77.65;101313.50;5075266;27;45441;-65
2022/11/30 01:24:55;;;;;;;;;31.75;31.25;;;;;7.80;76.96;101311.66;5074959;27;46237;-66
2022/11/30 01:27:21;;;;;;;;;41.00;36.50;;;;;7.81;77.46;101309.00;5073621;28;45358;-66
2022/11/30 01:29:46;;;;;;;;;40.00;36.25;;;;;7.83;77.52;101315.06;5074752;27;45909;-68
2022/11/30 01:32:11;;;;;;;;;38.25;35.00;;;;;7.81;77.63;101310.78;5074865;27;45544;-68
2022/11/30 01:34:37;;;;;;;;;35.25;32.75;;;;;7.78;77.56;101311.69;5074408;27;46496;-65
2022/11/30 01:37:02;;;;;;;;;41.50;36.50;;;;;7.71;77.01;101300.44;5074475;27;45220;-67
2022/11/30 01:39:27;;;;;;;;;41.50;36.25;;;;;7.74;77.38;101305.63;5074645;28;45186;-66
2022/11/30 01:41:53;;;;;;;;;37.75;35.00;;;;;7.71;77.39;101305.69;5074803;28;45207;-67
2022/11/30 01:44:25;;;;;;;;;32.75;32.50;;;;;7.74;77.33;101313.50;5074217;28;46538;-66
2022/11/30 01:46:53;;;;;;;;;37.00;35.00;;;;;7.77;77.44;101309.94;5074279;28;45409;-65
2022/11/30 01:49:28;;;;;;;;;38.25;35.00;;;;;7.79;77.47;101312.56;5074519;28;45356;-67
2022/11/30 01:52:03;;;;;;;;;37.25;34.00;;;;;7.85;77.08;101320.31;5075238;28;45270;-66
2022/11/30 01:54:34;;;;;;;;;41.75;37.00;;;;;7.84;76.64;101316.81;5074515;28;46531;-65
2022/11/30 01:57:08;;;;;;;;;37.25;34.50;;;;;7.87;76.55;101316.75;5074121;27;45349;-66
2022/11/30 01:59:33;;;;;;;;;37.75;35.25;;;;;7.87;76.34;101321.16;5074575;28;45309;-66
2022/11/30 02:01:59;;;;;;;;;40.50;36.00;;;;;7.85;76.50;101313.31;5074375;28;45536;-67
2022/11/30 02:04:30;;;;;;;;;40.00;35.50;;;;;7.88;76.94;101322.88;5074493;28;46370;-67
2022/11/30 02:06:57;;;;;;;;;39.25;36.25;;;;;7.89;76.90;101311.50;5074711;27;45242;-66
2022/11/30 02:09:23;;;;;;;;;45.25;38.50;;;;;7.92;76.26;101310.56;5073961;27;45256;-67
2022/11/30 02:11:49;;;;;;;;;41.00;37.00;;;;;7.87;76.31;101305.44;5075209;27;45387;-65
2022/11/30 02:14:38;;;;;;;;;45.75;38.75;;;;;7.87;76.08;101311.50;5077558;28;45891;-66
2022/11/30 02:17:15;;;;;;;;;41.00;37.00;;;;;7.87;76.74;101305.44;5077385;27;45203;-68
2022/11/30 02:20:04;;;;;;;;;47.00;39.25;;;;;7.88;76.35;101307.16;5093127;27;45350;-65
2022/11/30 02:22:47;;;;;;;;;39.50;36.50;;;;;7.87;76.64;101316.75;5078038;28;45379;-67
2022/11/30 02:25:37;;;;;;;;;40.00;35.75;;;;;7.84;76.27;101316.81;5077448;27;46789;-67
2022/11/30 02:28:20;;;;;;;;;42.25;37.25;;;;;7.79;76.43;101308.16;5077680;28;45204;-66
2022/11/30 02:30:51;;;;;;;;;35.50;34.00;;;;;7.75;76.01;101312.59;5077767;28;45360;-66
2022/11/30 02:33:22;;;;;;;;;29.25;28.00;;;;;7.76;75.96;101321.31;5078742;28;45251;-67
2022/11/30 02:35:51;;;;;;;;;28.00;28.00;;;;;7.75;76.46;101317.84;5077163;28;45588;-67
2022/11/30 02:38:20;;;;;;;;;34.00;33.00;;;;;7.72;76.38;101315.28;5077107;28;45273;-65
2022/11/30 02:40:46;;;;;;;;;34.25;33.25;;;;;7.73;75.92;101318.75;5077242;28;45401;-68
2022/11/30 02:43:12;;;;;;;;;35.25;32.75;;;;;7.72;76.28;101319.63;5077457;28;45423;-67
2022/11/30 02:45:52;;;;;;;;;26.00;26.00;;;;;7.71;76.59;101316.16;5076979;28;46265;-68
2022/11/30 02:48:26;;;;;;;;;28.75;28.75;;;;;7.70;76.11;101318.78;5077466;28;45567;-68
2022/11/30 02:50:57;;;;;;;;;22.00;22.00;;;;;7.61;76.26;101306.72;5077472;28;45239;-66
2022/11/30 02:53:23;;;;;;;;;26.75;26.25;;;;;7.63;75.88;101318.03;5077114;28;45460;-66
2022/11/30 02:55:49;;;;;;;;;26.75;26.75;;;;;7.62;75.99;101311.09;5077077;28;46672;-66
2022/11/30 02:58:16;;;;;;;;;25.75;25.50;;;;;7.58;75.65;101310.25;5076552;28;45212;-67
2022/11/30 03:00:41;;;;;;;;;20.25;20.25;;;;;7.58;75.74;101315.50;5077050;28;45373;-67
2022/11/30 03:03:06;;;;;;;;;26.00;25.50;;;;;7.53;75.50;101308.63;5076824;28;45193;-66
2022/11/30 03:05:32;;;;;;;;;19.00;19.00;;;;;7.55;75.81;101309.44;5076509;27;46414;-67
2022/11/30 03:07:57;;;;;;;;;22.25;22.25;;;;;7.51;75.38;101313.00;5077345;28;45226;-67
2022/11/30 03:10:22;;;;;;;;;23.50;23.50;;;;;7.49;75.82;101313.00;5077045;28;45571;-67
2022/11/30 03:12:47;;;;;;;;;21.75;21.75;;;;;7.48;75.54;101311.28;5077301;28;45333;-69
2022/11/30 03:15:13;;;;;;;;;19.50;19.50;;;;;7.47;76.31;101311.31;5077091;28;45921;-67
2022/11/30 03:17:38;;;;;;;;;20.25;20.25;;;;;7.43;75.86;101314.00;5077299;27;45332;-68
2022/11/30 03:20:04;;;;;;;;;21.50;21.50;;;;;7.42;75.74;101317.50;5077080;28;45795;-66
2022/11/30 03:22:30;;;;;;;;;23.75;23.50;;;;;7.44;76.14;101328.81;5077078;28;45524;-67
2022/11/30 03:24:55;;;;;;;;;24.50;24.00;;;;;7.45;75.58;101330.53;5075588;27;46193;-67
2022/11/30 03:27:21;;;;;;;;;27.00;25.50;;;;;7.41;76.54;101320.97;5076618;28;45342;-66
2022/11/30 03:29:47;;;;;;;;;24.25;24.25;;;;;7.42;75.99;101325.34;5076654;28;45303;-68
2022/11/30 03:32:12;;;;;;;;;22.00;22.00;;;;;7.42;76.42;101332.31;5076778;28;45649;-68
2022/11/30 03:34:37;;;;;;;;;21.75;21.75;;;;;7.27;76.11;101312.47;5076511;28;46483;-67
2022/11/30 03:37:03;;;;;;;;;17.50;17.50;;;;;7.43;76.51;101334.94;5076558;28;45284;-68
2022/11/30 03:39:28;;;;;;;;;22.75;21.00;;;;;7.39;76.67;101333.22;5076787;28;45390;-67
2022/11/30 03:41:53;;;;;;;;;16.50;16.50;;;;;7.34;76.13;101329.81;5076849;27;45574;-67
2022/11/30 03:44:19;;;;;;;;;19.75;19.75;;;;;7.43;76.33;101334.94;5076032;28;46193;-67
2022/11/30 03:46:44;;;;;;;;;17.75;17.75;;;;;7.38;76.54;101336.72;5076218;28;45295;-68
2022/11/30 03:49:09;;;;;;;;;16.00;16.00;;;;;7.38;76.08;101344.56;5074764;28;45326;-67
2022/11/30 03:51:35;;;;;;;;;18.75;18.75;;;;;7.35;75.81;101341.16;5076508;28;45286;-66
2022/11/30 03:54:00;;;;;;;;;16.25;16.25;;;;;7.34;76.09;101347.28;5076174;28;45357;-67
2022/11/30 03:56:25;;;;;;;;;14.75;14.75;;;;;7.29;76.55;101347.31;5075935;28;45246;-66
2022/11/30 03:58:51;;;;;;;;;12.50;12.50;;;;;7.29;76.19;101361.28;5074746;28;45315;-67
2022/11/30 04:01:22;;;;;;;;;16.00;16.00;;;;;7.25;75.96;101358.72;5076395;28;45246;-66
2022/11/30 04:03:51;;;;;;;;;12.75;12.75;;;;;7.20;76.16;101345.72;5076032;28;46317;-67
2022/11/30 04:06:18;;;;;;;;;14.50;14.50;;;;;7.23;75.39;101352.66;5076151;27;45433;-66
2022/11/30 04:08:44;;;;;;;;;18.00;18.00;;;;;7.21;76.33;101352.69;5076016;28;45381;-68
2022/11/30 04:11:10;;;;;;;;;13.25;13.25;;;;;7.19;75.86;101353.56;5076271;28;45314;-66
2022/11/30 04:13:37;;;;;;;;;15.25;15.25;;;;;7.21;76.07;101357.91;5075911;28;46178;-66
2022/11/30 04:16:03;;;;;;;;;15.25;15.25;;;;;7.19;75.68;101362.31;5076034;28;45481;-66
2022/11/30 04:18:30;;;;;;;;;10.00;10.00;;;;;7.15;76.27;101365.84;5074315;28;45420;-67
2022/11/30 04:20:58;;;;;;;;;16.75;16.75;;;;;7.12;75.38;101369.38;5075753;27;45571;-67
2022/11/30 04:23:24;;;;;;;;;11.75;11.75;;;;;7.10;75.78;101362.44;5075502;27;45460;-66
2022/11/30 04:25:50;;;;;;;;;14.75;14.75;;;;;7.06;75.53;101373.81;5075503;28;45264;-66
2022/11/30 04:28:17;;;;;;;;;13.75;13.75;;;;;7.03;75.79;101373.88;5075432;27;45317;-67
2022/11/30 04:30:43;;;;;;;;;10.75;10.75;;;;;6.91;75.69;101367.03;5075808;28;45555;-66
2022/11/30 04:33:08;;;;;;;;;15.75;15.25;;;;;6.89;75.74;101369.63;5075242;28;45410;-68
2022/11/30 04:35:39;;;;;;;;;14.75;13.75;;;;;6.87;75.41;101376.63;5075366;28;45256;-68
2022/11/30 04:38:05;;;;;;;;;11.25;11.25;;;;;6.81;75.79;101382.81;5075828;27;45334;-69
2022/11/30 04:40:30;;;;;;;;;14.00;14.00;;;;;6.79;76.07;101379.38;5075411;27;45647;-67
2022/11/30 04:42:55;;;;;;;;;10.00;10.00;;;;;6.79;76.17;101387.22;5074932;28;46705;-67
2022/11/30 04:45:21;;;;;;;;;9.00;9.00;;;;;6.74;76.83;101378.56;5075090;27;45314;-66
2022/11/30 04:47:46;;;;;;;;;7.50;7.50;;;;;6.71;76.49;101379.44;5075446;28;45398;-68
2022/11/30 04:50:11;;;;;;;;;7.75;7.75;;;;;6.72;75.80;101381.16;5075470;27;45421;-66
2022/11/30 04:52:37;;;;;;;;;7.25;7.25;;;;;6.71;76.34;101384.66;5075261;27;46480;-66
2022/11/30 04:55:03;;;;;;;;;6.25;6.25;;;;;6.67;75.39;101390.81;5075036;28;45368;-67
2022/11/30 04:57:29;;;;;;;;;5.75;5.75;;;;;6.64;76.07;101395.22;5075211;28;45426;-68
2022/11/30 04:59:54;;;;;;;;;8.50;8.50;;;;;6.62;75.86;101395.22;5090883;27;45446;-66
2022/11/30 05:02:19;;;;;;;;;4.00;4.00;;;;;6.58;75.58;101398.75;5074804;27;46028;-67
2022/11/30 05:04:45;;;;;;;;;7.50;7.50;;;;;6.55;75.91;101390.94;5073550;28;45365;-69
2022/11/30 05:07:10;;;;;;;;;7.75;7.75;;;;;6.58;75.56;101397.03;5075066;27;45443;-67
2022/11/30 05:09:35;;;;;;;;;7.00;7.00;;;;;6.61;77.10;101398.72;5075821;27;46007;-66
2022/11/30 05:12:01;;;;;;;;;8.00;8.00;;;;;6.60;76.46;101391.75;5074963;28;46329;-67
2022/11/30 05:14:26;;;;;;;;;10.25;10.00;;;;;6.61;76.79;101384.81;5075004;27;45289;-67
2022/11/30 05:16:51;;;;;;;;;12.00;12.00;;;;;6.65;76.84;101383.88;5074854;28;45223;-67
2022/11/30 05:19:17;;;;;;;;;8.25;8.00;;;;;6.64;76.46;101385.63;5075332;28;45250;-66
2022/11/30 05:21:43;;;;;;;;;11.25;11.25;;;;;6.56;76.25;101366.53;5074724;28;47356;-67
2022/11/30 05:24:09;;;;;;;;;9.75;9.75;;;;;6.53;76.00;101375.28;5073478;28;45332;-66
2022/11/30 05:26:36;;;;;;;;;7.75;7.75;;;;;6.56;75.97;101380.50;5075026;28;45385;-68
2022/11/30 05:29:03;;;;;;;;;12.50;12.50;;;;;6.49;76.52;101372.72;5074705;28;45639;-66
2022/11/30 05:31:29;;;;;;;;;11.25;11.25;;;;;6.51;76.46;101376.19;5074358;28;46477;-66
2022/11/30 05:33:54;;;;;;;;;8.00;8.00;;;;;6.55;76.35;101377.88;5074048;28;45443;-68
2022/11/30 05:36:19;;;;;;;;;13.50;13.50;;;;;6.52;76.48;101368.34;5074947;28;45288;-68
2022/11/30 05:38:45;;;;;;;;;12.50;12.00;;;;;6.53;76.81;101364.84;5074804;28;45514;-67
2022/11/30 05:41:11;;;;;;;;;12.75;12.75;;;;;6.62;76.20;101368.22;5074540;28;45320;-67
2022/11/30 05:43:37;;;;;;;;;16.00;15.75;;;;;6.62;76.88;101363.00;5074790;28;45246;-67
2022/11/30 05:46:04;;;;;;;;;11.25;10.50;;;;;6.65;77.48;101363.81;5074156;28;45255;-66
2022/11/30 05:48:30;;;;;;;;;11.25;11.00;;;;;6.67;77.47;101366.44;5074440;28;45515;-67
2022/11/30 05:51:14;;;;;;;;;12.00;9.75;;;;;6.70;77.31;101372.47;5074743;28;46001;-67
2022/11/30 05:53:40;;;;;;;;;16.75;16.75;;;;;6.70;77.03;101371.63;5072818;28;46139;-67
2022/11/30 05:56:10;;;;;;;;;20.50;20.50;;;;;6.65;77.75;101360.34;5073292;28;45384;-67
2022/11/30 05:58:35;;;;;;;;;14.50;14.50;;;;;6.65;77.06;101360.34;5074202;27;45302;-67
2022/11/30 06:01:01;;;;;;;;;11.00;11.00;;;;;6.69;77.33;101365.50;5073906;28;45339;-68
2022/11/30 06:03:28;;;;;;;;;15.00;15.00;;;;;6.70;77.06;101364.63;5074065;28;45276;-68
2022/11/30 06:05:53;;;;;;;;;14.50;14.50;;;;;6.70;77.53;101363.78;5106945;27;45454;-68
2022/11/30 06:08:19;;;;;;;;;14.75;14.75;;;;;6.75;76.80;101371.56;5074120;27;45584;-67
2022/11/30 06:10:44;;;;;;;;;11.00;11.00;;;;;6.79;77.45;101373.25;5073935;28;46288;-68
2022/11/30 06:13:10;;;;;;;;;14.00;14.00;;;;;6.81;77.30;101374.09;5074561;28;45452;-68
2022/11/30 06:15:36;;;;;;;;;16.75;16.75;;;;;6.79;77.24;101362.78;5074985;27;45403;-69
2022/11/30 06:18:02;;;;;;;;;15.00;15.00;;;;;6.79;77.44;101360.19;5089882;27;45630;-67
2022/11/30 06:20:28;;;;;;;;;16.50;16.50;;;;;6.81;77.02;101363.63;5089323;27;47036;-68
2022/11/30 06:22:53;;;;;;;;;15.00;15.00;;;;;6.81;77.47;101368.88;5073735;28;45324;-68
2022/11/30 06:25:18;;;;;;;;;14.75;14.75;;;;;6.77;77.21;101372.41;5074024;28;45228;-67
2022/11/30 06:27:44;;;;;;;;;18.50;17.75;;;;;6.83;78.17;101367.09;5089284;27;45590;-68
2022/11/30 06:30:10;;;;;;;;;19.25;18.75;;;;;6.86;76.59;101367.06;5073823;27;46380;-67
2022/11/30 06:32:35;;;;;;;;;20.50;18.50;;;;;6.84;76.83;101359.25;5073592;28;45283;-67
2022/11/30 06:35:01;;;;;;;;;20.75;20.75;;;;;6.81;77.81;101361.03;5073657;28;45373;-68
2022/11/30 06:37:26;;;;;;;;;16.50;15.50;;;;;6.87;77.28;101364.44;5074093;28;45537;-67
2022/11/30 06:39:51;;;;;;;;;21.50;21.50;;;;;6.91;77.80;101372.25;5073476;27;46401;-67
2022/11/30 06:42:18;;;;;;;;;16.25;16.25;;;;;6.91;77.18;101359.19;5073189;28;45277;-68
2022/11/30 06:44:44;;;;;;;;;14.50;14.50;;;;;6.96;76.48;101376.56;5072107;28;45321;-68
2022/11/30 06:47:10;;;;;;;;;17.25;17.25;;;;;6.92;77.17;101371.38;5089544;27;45411;-67
2022/11/30 06:49:35;;;;;;;;;16.25;16.25;;;;;6.97;77.15;101380.03;5074040;28;45382;-69
2022/11/30 06:52:00;;;;;;;;;16.00;16.00;;;;;6.95;77.58;101376.56;5073564;28;45346;-69
2022/11/30 06:54:26;;;;;;;;;21.75;21.75;;;;;6.99;76.85;101378.25;5088995;27;46269;-67
2022/11/30 06:56:51;;;;;;;;;22.50;22.50;;;;;6.86;77.36;101359.22;5073727;28;45624;-68
2022/11/30 06:59:16;;;;;;;;;18.75;18.75;;;;;7.00;76.64;101375.63;5076243;27;46271;-68
2022/11/30 07:01:42;;;;;;;;;20.00;20.00;;;;;7.03;77.35;101382.56;5077895;27;45322;-67
2022/11/30 07:04:08;;;;;;;;;11.75;11.75;;;;;7.01;77.49;101385.22;5077342;28;45466;-69
2022/11/30 07:06:33;;;;;;;;;22.25;22.25;;;;;7.03;77.58;101389.56;5078140;27;45200;-68
2022/11/30 07:08:58;;;;;;;;;20.50;20.00;;;;;7.07;77.51;101392.09;5076525;28;49604;-68
2022/11/30 07:11:23;;;;;;;;;18.00;17.00;;;;;7.08;76.81;101388.59;5077342;27;45242;-68
2022/11/30 07:13:49;;;;;;;;;21.75;20.00;;;;;7.08;77.61;101399.06;5092360;27;45258;-67
2022/11/30 07:16:14;;;;;;;;;21.00;21.00;;;;;7.09;76.50;101405.19;5077745;27;45565;-70
2022/11/30 07:18:40;;;;;;;;;24.00;24.00;;;;;7.10;76.62;101407.75;5077359;28;46080;-68
2022/11/30 07:21:06;;;;;;;;;22.75;22.75;;;;;7.09;76.69;101400.78;5076316;27;45472;-68
2022/11/30 07:26:16;;;;;;;;;22.75;22.50;;;;;7.06;77.22;101406.06;5075924;28;45362;-69
2022/11/30 07:28:44;;;;;;;;;19.00;19.00;;;;;7.08;76.90;101403.44;5076361;28;47391;-67
2022/11/30 07:31:22;;;;;;;;;19.75;19.25;;;;;7.05;77.21;101401.72;5076071;28;45396;-68
2022/11/30 07:33:48;;;;;;;;;22.75;22.75;;;;;7.10;76.88;101404.28;5075911;28;45244;-66
2022/11/30 07:36:15;;;;;;;;;25.00;24.50;;;;;7.11;76.98;101411.25;5076098;27;45634;-67
2022/11/30 07:38:41;;;;;;;;;22.25;22.25;;;;;7.12;77.27;101416.47;5076151;27;45791;-67
2022/11/30 07:41:08;;;;;;;;;26.00;25.25;;;;;7.15;77.80;101416.41;5074386;28;45357;-68
2022/11/30 07:43:33;;;;;;;;;22.75;22.75;;;;;7.17;76.54;101424.25;5075902;28;45396;-67
2022/11/30 07:45:59;;;;;;;;;20.25;20.25;;;;;7.14;77.00;101421.69;5076090;28;45538;-67
2022/11/30 07:48:25;;;;;;;;;25.25;24.50;;;;;7.18;77.77;101428.63;5075543;27;45424;-67
2022/11/30 07:50:50;;;;;;;;;21.75;21.75;;;;;7.16;76.40;101420.75;5074085;28;45390;-67
2022/11/30 07:53:16;;;;;;;;;33.50;32.25;;;;;7.17;77.15;101421.66;5076208;28;45456;-67
2022/11/30 07:55:42;;;;;;;;;24.75;24.75;;;;;7.23;77.44;101433.78;5076336;28;45433;-66
2022/11/30 07:58:08;;;;;;;;;21.75;21.75;;;;;7.24;76.77;101431.16;5075641;28;45599;-67
2022/11/30 08:00:35;;;;;;;;;22.25;22.25;;;;;7.28;77.25;101431.97;5075668;28;45182;-67
2022/11/30 08:03:00;;;;;;;;;23.75;23.75;;;;;7.35;76.91;101435.38;5075591;28;45209;-67
2022/11/30 08:05:26;;;;;;;;;31.00;29.00;;;;;7.35;76.70;101433.63;5075621;28;45324;-68
2022/11/30 08:07:52;;;;;;;;;32.25;31.50;;;;;7.34;77.45;101429.25;5075191;27;48348;-67
2022/11/30 08:10:22;;;;;;;;;35.25;32.25;;;;;7.37;77.14;101436.22;5073200;28;45290;-67
2022/11/30 08:12:48;;;;;;;;;40.00;36.50;;;;;7.42;77.22;101434.41;5075973;28;45373;-68
2022/11/30 08:15:14;;;;;;;;;27.00;27.00;;;;;7.48;76.58;101438.72;5075875;28;45578;-66
2022/11/30 08:17:40;;;;;;;;;16.75;15.75;;;;;7.43;75.91;101441.38;5075023;28;45562;-67
2022/11/30 08:20:08;;;;;;;;;23.50;23.50;;;;;7.47;76.36;101448.31;5073580;28;45243;-67
2022/11/30 08:22:34;;;;;;;;;30.50;30.25;;;;;7.49;76.41;101448.28;5075345;28;45523;-67
2022/11/30 08:25:00;;;;;;;;;26.75;26.75;;;;;7.50;76.25;101452.66;5073737;28;45279;-67
2022/11/30 08:27:25;;;;;;;;;19.25;19.25;;;;;7.49;75.95;101446.53;5075037;28;45377;-69
2022/11/30 08:29:51;;;;;;;;;27.25;26.75;;;;;7.56;75.74;101452.56;5073689;28;45311;-66
2022/11/30 08:32:16;;;;;;;;;28.75;28.75;;;;;7.56;76.40;101447.31;5075336;28;45416;-68
2022/11/30 08:34:41;;;;;;;;;27.50;27.50;;;;;7.60;76.08;101452.47;5073728;28;45537;-66
2022/11/30 08:37:07;;;;;;;;;25.50;24.50;;;;;7.62;75.82;101447.25;5075027;28;45677;-66
2022/11/30 08:39:33;;;;;;;;;31.25;29.25;;;;;7.68;75.83;101455.00;5090260;27;45926;-67
2022/11/30 08:41:59;;;;;;;;;24.50;24.25;;;;;7.67;75.44;101455.00;5074990;28;45339;-66
2022/11/30 08:44:25;;;;;;;;;24.00;23.00;;;;;7.74;75.74;101459.28;5074844;28;45588;-67
2022/11/30 08:46:51;;;;;;;;;30.50;30.50;;;;;7.79;75.39;101459.22;5074972;27;46240;-67
2022/11/30 08:49:17;;;;;;;;;26.25;25.25;;;;;7.76;75.35;101457.50;5075245;27;45290;-69
2022/11/30 08:51:42;;;;;;;;;31.00;29.00;;;;;7.79;75.80;101457.47;5073699;28;45384;-68
2022/11/30 08:54:08;;;;;;;;;32.75;31.00;;;;;7.77;75.04;101446.13;5074961;28;45433;-67
2022/11/30 08:56:33;;;;;;;;;29.50;29.00;;;;;7.82;75.44;101454.78;5074749;28;45568;-67
2022/11/30 08:58:58;;;;;;;;;26.75;26.75;;;;;7.87;75.06;101457.34;5074856;28;45393;-71
2022/11/30 09:01:25;;;;;;;;;23.50;23.50;;;;;7.87;75.49;101457.34;5074580;27;45582;-67
2022/11/30 09:03:52;;;;;;;;;25.50;25.50;;;;;7.88;75.28;101451.22;5074923;27;45628;-67
2022/11/30 09:06:24;;;;;;;;;28.25;27.75;;;;;7.94;74.89;101461.63;5090948;27;47085;-68
2022/11/30 09:08:51;;;;;;;;;29.75;26.50;;;;;7.94;74.76;101466.84;5075102;28;45329;-67
2022/11/30 09:11:21;;;;;;;;;29.25;29.00;;;;;7.93;74.16;101467.75;5075434;28;45403;-68
2022/11/30 09:13:47;;;;;;;;;22.00;22.00;;;;;7.89;74.63;101468.69;5075444;27;45235;-66
2022/11/30 09:16:15;;;;;;;;;29.25;29.25;;;;;7.89;75.05;101471.31;5074920;28;45295;-67
2022/11/30 09:18:41;;;;;;;;;28.00;27.25;;;;;7.87;74.57;101465.22;5090253;27;45427;-67
2022/11/30 09:21:09;;;;;;;;;31.25;30.25;;;;;7.92;74.34;101470.38;5073984;28;45454;-67
2022/11/30 09:23:35;;;;;;;;;24.75;24.75;;;;;7.94;74.46;101479.06;5090718;27;45460;-67
2022/11/30 09:26:03;;;;;;;;;32.50;28.50;;;;;7.96;74.58;101480.81;5090329;27;47644;-67
2022/11/30 09:28:31;;;;;;;;;33.25;30.75;;;;;7.98;73.95;101484.25;5074483;28;45425;-68
2022/11/30 09:31:01;;;;;;;;;24.75;24.75;;;;;7.98;73.77;101479.03;5075086;28;45850;-68
2022/11/30 09:33:27;;;;;;;;;34.75;34.00;;;;;7.98;73.79;101478.16;5074514;27;45595;-69
2022/11/30 09:35:57;;;;;;;;;32.00;31.00;;;;;8.03;74.35;101485.06;5074539;28;45534;-68
2022/11/30 09:38:23;;;;;;;;;27.25;27.25;;;;;8.09;74.07;101489.34;5074516;28;45339;-66
2022/11/30 09:40:54;;;;;;;;;26.50;26.00;;;;;8.11;74.28;101489.31;5074801;28;45310;-67
2022/11/30 09:43:48;;;;;;;;;31.50;31.00;;;;;8.13;73.73;101488.41;5075101;28;45382;-68
2022/11/30 09:46:14;;;;;;;;;30.50;30.00;;;;;8.16;73.97;101475.25;5074129;28;46536;-68
2022/11/30 09:48:55;;;;;;;;;33.25;29.50;;;;;8.21;73.50;101477.78;5074156;28;45389;-68
2022/11/30 09:51:38;;;;;;;;;35.75;32.00;;;;;8.08;73.26;101463.16;5074523;28;45237;-67
2022/11/30 09:54:10;;;;;;;;;30.25;30.25;;;;;8.23;73.67;101477.78;5074219;27;45560;-66
2022/11/30 09:56:38;;;;;;;;;31.00;30.25;;;;;8.24;73.24;101480.38;5074064;28;45375;-68
2022/11/30 09:59:10;;;;;;;;;32.75;32.25;;;;;8.28;73.12;101483.81;5074084;28;45231;-68
2022/11/30 10:01:35;;;;;;;;;41.00;37.00;;;;;8.24;73.11;101471.66;5074380;28;45382;-68
2022/11/30 10:04:01;;;;;;;;;28.00;27.50;;;;;8.29;73.35;101475.06;5075014;28;45595;-67
2022/11/30 10:06:50;;;;;;;;;29.75;29.25;;;;;8.14;73.25;101452.56;5089975;27;47270;-67
2022/11/30 10:09:43;;;;;;;;;34.25;32.75;;;;;8.27;73.39;101468.97;5074464;28;45414;-67
2022/11/30 10:12:20;;;;;;;;;34.50;33.25;;;;;8.39;72.95;101479.25;5074530;27;45313;-67
2022/11/30 10:14:55;;;;;;;;;31.75;31.75;;;;;8.49;72.79;101482.66;5072961;28;45265;-66
2022/11/30 10:17:20;;;;;;;;;31.25;31.25;;;;;8.55;72.33;101477.28;5074297;28;45469;-67
2022/11/30 10:19:56;;;;;;;;;33.50;32.00;;;;;8.59;72.37;101468.47;5074160;27;45306;-68
2022/11/30 10:22:30;;;;;;;;;47.00;39.25;;;;;8.65;72.31;101471.88;5074307;28;45340;-67
2022/11/30 10:25:13;;;;;;;;;39.00;34.50;;;;;8.70;71.66;101481.38;5074193;28;45301;-67
2022/11/30 10:27:53;;;;;;;;;34.25;32.00;;;;;8.75;71.56;101478.69;5072240;28;47473;-66
2022/11/30 10:30:24;;;;;;;;;37.50;35.50;;;;;8.77;71.14;101480.38;5073963;27;45290;-68
2022/11/30 10:32:53;;;;;;;;;37.75;35.50;;;;;8.76;71.58;101475.19;5075120;28;45311;-68
2022/11/30 10:35:40;;;;;;;;;39.25;34.50;;;;;8.76;71.57;101470.78;5078680;28;45529;-67
2022/11/30 10:38:15;;;;;;;;;37.50;34.25;;;;;8.77;71.33;101472.50;5077843;28;46217;-68
2022/11/30 10:40:55;;;;;;;;;38.75;34.50;;;;;8.80;71.09;101468.97;5077208;28;45389;-67
2022/11/30 10:43:46;;;;;;;;;36.75;33.50;;;;;8.79;71.31;101464.63;5077554;28;45284;-67
2022/11/30 10:46:29;;;;;;;;;29.00;27.50;;;;;8.81;71.25;101462.84;5077145;27;45310;-68
2022/11/30 10:49:11;;;;;;;;;33.25;32.75;;;;;8.87;71.26;101460.09;5077453;28;45835;-68
2022/11/30 10:51:41;;;;;;;;;39.00;34.75;;;;;8.90;71.31;101452.16;5077168;28;45512;-67
2022/11/30 10:54:17;;;;;;;;;34.00;32.75;;;;;8.95;70.98;101461.72;5092380;27;45298;-68
2022/11/30 10:56:43;;;;;;;;;34.75;33.75;;;;;8.96;71.02;101453.78;5075581;28;45322;-68
2022/11/30 10:59:23;;;;;;;;;34.75;32.25;;;;;8.77;70.88;101427.91;5076487;28;45316;-68
2022/11/30 11:01:49;;;;;;;;;32.25;31.50;;;;;8.91;70.94;101443.41;5075377;27;45400;-67
2022/11/30 11:04:17;;;;;;;;;36.50;34.75;;;;;8.95;70.89;101443.34;5076833;27;45393;-68
2022/11/30 11:07:03;;;;;;;;;37.50;35.50;;;;;8.94;70.86;101442.47;5076673;28;45342;-67
2022/11/30 11:10:02;;;;;;;;;29.00;28.25;;;;;8.77;70.29;101424.44;5065339;27;46053;-69
2022/11/30 11:12:29;;;;;;;;;37.00;33.50;;;;;8.93;70.45;101448.59;5073523;27;45398;-68
2022/11/30 11:15:19;;;;;;;;;49.50;42.50;;;;;9.00;70.92;101446.75;5077262;28;45330;-68
2022/11/30 11:17:46;;;;;;;;;34.25;33.00;;;;;9.03;70.43;101444.94;5076824;28;45316;-68
2022/11/30 11:20:28;;;;;;;;;29.50;29.25;;;;;9.05;70.39;101443.13;5074929;28;48217;-67
2022/11/30 11:22:54;;;;;;;;;31.50;30.25;;;;;9.08;70.37;101449.22;5076976;27;45249;-68
2022/11/30 11:25:24;;;;;;;;;40.50;36.50;;;;;9.08;70.04;101447.44;5076768;28;45188;-68
2022/11/30 11:27:58;;;;;;;;;35.25;33.00;;;;;9.07;70.61;101443.09;5077264;27;45580;-67